createdAt,value
2023-02-27T00:02:25.345Z,97167.25
2023-02-27T00:05:29.927Z,97161.81
2023-02-27T00:08:34.540Z,97160.56
2023-02-27T00:11:39.134Z,97162.31
2023-02-27T00:14:43.602Z,97171.28
2023-02-27T00:17:48.199Z,97164.94
2023-02-27T00:20:54.631Z,97129.06
2023-02-27T00:23:59.171Z,97181.19
2023-02-27T00:27:03.761Z,97161.06
2023-02-27T00:30:11.790Z,97184.41
2023-02-27T00:33:16.768Z,97192.13
2023-02-27T00:36:21.465Z,97184.34
2023-02-27T00:39:25.972Z,97190.09
2023-02-27T00:42:32.034Z,97203.09
2023-02-27T00:45:36.710Z,97193.75
2023-02-27T00:48:41.202Z,97201.75
2023-02-27T00:51:46.681Z,97198.38
2023-02-27T00:54:51.204Z,97198.00
2023-02-27T00:57:55.824Z,97198.06
2023-02-27T01:01:00.579Z,97201.47
2023-02-27T01:04:06.512Z,97185.13
2023-02-27T01:07:11.097Z,97190.97
2023-02-27T01:10:17.588Z,97169.66
2023-02-27T01:13:22.239Z,97197.03
2023-02-27T01:16:26.830Z,97203.50
2023-02-27T01:19:31.829Z,97200.38
2023-02-27T01:22:36.361Z,97205.16
2023-02-27T01:25:40.948Z,97199.50
2023-02-27T01:28:45.512Z,97211.34
2023-02-27T01:31:50.824Z,97210.53
2023-02-27T01:34:55.493Z,97210.31
2023-02-27T01:38:00.067Z,97213.25
2023-02-27T01:41:07.149Z,97218.84
2023-02-27T01:44:13.457Z,97226.06
2023-02-27T01:47:18.168Z,97223.66
2023-02-27T01:50:23.720Z,97226.06
2023-02-27T01:53:31.867Z,97223.97
2023-02-27T01:56:36.858Z,97228.09
2023-02-27T01:59:42.322Z,97217.94
2023-02-27T02:03:04.554Z,97221.22
2023-02-27T02:06:10.155Z,97221.31
2023-02-27T02:09:17.414Z,97228.69
2023-02-27T02:12:26.686Z,97218.91
2023-02-27T02:15:37.081Z,97222.00
2023-02-27T02:18:53.837Z,97224.91
2023-02-27T02:22:16.021Z,97201.25
2023-02-27T02:25:57.998Z,97217.97
2023-02-27T02:29:25.729Z,97211.28
2023-02-27T02:32:54.502Z,97217.41
2023-02-27T02:36:17.547Z,97216.63
2023-02-27T02:40:04.776Z,97216.38
2023-02-27T02:43:25.822Z,97217.97
2023-02-27T02:46:50.913Z,97218.09
2023-02-27T02:50:09.386Z,97215.25
2023-02-27T02:53:36.045Z,97206.94
2023-02-27T02:56:43.289Z,97225.38
2023-02-27T03:00:02.408Z,97217.34
2023-02-27T03:03:22.383Z,97228.47
2023-02-27T03:06:38.000Z,97224.59
2023-02-27T03:09:57.040Z,97225.63
2023-02-27T03:13:46.283Z,97223.03
2023-02-27T03:16:54.793Z,97218.66
2023-02-27T03:20:06.334Z,97223.28
2023-02-27T03:23:16.101Z,97220.09
2023-02-27T03:26:24.877Z,97226.19
2023-02-27T03:29:52.678Z,97225.34
2023-02-27T03:33:10.561Z,97234.19
2023-02-27T03:36:37.945Z,97236.69
2023-02-27T03:39:51.670Z,97237.72
2023-02-27T03:43:19.123Z,97240.44
2023-02-27T03:46:28.430Z,97239.09
2023-02-27T03:49:33.014Z,97237.63
2023-02-27T03:52:39.816Z,97232.50
2023-02-27T03:55:47.417Z,97235.72
2023-02-27T03:58:52.488Z,97246.44
2023-02-27T04:01:59.044Z,97246.75
2023-02-27T04:05:04.015Z,97256.47
2023-02-27T04:08:28.333Z,97255.34
2023-02-27T04:12:04.000Z,97253.06
2023-02-27T04:15:23.604Z,97261.28
2023-02-27T04:18:51.117Z,97264.97
2023-02-27T04:22:12.205Z,97259.53
2023-02-27T04:25:39.429Z,97264.66
2023-02-27T04:29:05.918Z,97265.81
2023-02-27T04:32:17.531Z,97269.72
2023-02-27T04:35:33.005Z,97259.34
2023-02-27T04:38:47.640Z,97274.00
2023-02-27T04:42:00.621Z,97266.16
2023-02-27T04:45:07.692Z,97267.69
2023-02-27T04:48:21.042Z,97266.09
2023-02-27T04:51:32.794Z,97269.16
2023-02-27T04:54:38.367Z,97269.47
2023-02-27T04:57:49.591Z,97273.16
2023-02-27T05:01:03.785Z,97264.59
2023-02-27T05:04:13.391Z,97253.66
2023-02-27T05:07:23.423Z,97254.53
2023-02-27T05:10:38.457Z,97257.72
2023-02-27T05:13:51.637Z,97272.59
2023-02-27T05:17:17.821Z,97257.31
2023-02-27T05:20:23.333Z,97275.31
2023-02-27T05:24:11.457Z,97275.59
2023-02-27T05:27:35.046Z,97280.41
2023-02-27T05:31:08.239Z,97272.63
2023-02-27T05:34:22.566Z,97278.72
2023-02-27T05:37:33.877Z,97264.94
2023-02-27T05:40:39.366Z,97273.53
2023-02-27T05:43:49.048Z,97269.06
2023-02-27T05:47:00.630Z,97271.91
2023-02-27T05:50:19.516Z,97269.19
2023-02-27T05:53:28.270Z,97275.03
2023-02-27T05:56:36.451Z,97278.81
2023-02-27T05:59:48.002Z,97284.44
2023-02-27T06:02:53.218Z,97282.91
2023-02-27T06:05:59.781Z,97285.94
2023-02-27T06:09:04.322Z,97284.91
2023-02-27T06:12:08.893Z,97289.00
2023-02-27T06:15:13.899Z,97292.06
2023-02-27T06:18:18.859Z,97302.19
2023-02-27T06:21:23.427Z,97297.63
2023-02-27T06:24:27.964Z,97310.88
2023-02-27T06:27:33.837Z,97306.81
2023-02-27T06:30:38.915Z,97302.28
2023-02-27T06:33:43.442Z,97323.31
2023-02-27T06:36:48.624Z,97322.69
2023-02-27T06:39:54.466Z,97279.28
2023-02-27T06:42:59.137Z,97328.38
2023-02-27T06:46:04.044Z,97332.72
2023-02-27T06:49:08.576Z,97334.78
2023-02-27T06:52:13.154Z,97337.41
2023-02-27T06:55:22.539Z,97350.38
2023-02-27T06:58:28.483Z,97296.69
2023-02-27T07:01:33.172Z,97354.22
2023-02-27T07:04:37.833Z,97343.59
2023-02-27T07:07:42.357Z,97355.31
2023-02-27T07:10:48.882Z,97349.47
2023-02-27T07:13:53.476Z,97352.53
2023-02-27T07:17:03.344Z,97343.91
2023-02-27T07:20:10.478Z,97362.47
2023-02-27T07:23:15.241Z,97356.13
2023-02-27T07:26:19.828Z,97362.78
2023-02-27T07:29:24.455Z,97354.72
2023-02-27T07:32:30.466Z,97365.59
2023-02-27T07:35:35.126Z,97355.59
2023-02-27T07:38:39.627Z,97360.94
2023-02-27T07:41:44.149Z,97369.97
2023-02-27T07:44:54.599Z,97377.44
2023-02-27T07:47:59.086Z,97376.44
2023-02-27T07:51:03.621Z,97372.44
2023-02-27T07:54:08.098Z,97374.81
2023-02-27T07:57:12.711Z,97372.56
2023-02-27T08:00:19.076Z,97353.59
2023-02-27T08:03:23.637Z,97382.72
2023-02-27T08:06:28.453Z,97378.66
2023-02-27T08:09:33.269Z,97387.09
2023-02-27T08:12:38.147Z,97387.19
2023-02-27T08:15:42.683Z,97360.97
2023-02-27T08:18:47.743Z,97374.69
2023-02-27T08:21:52.259Z,97382.16
2023-02-27T08:24:56.815Z,97380.09
2023-02-27T08:28:01.279Z,97377.03
2023-02-27T08:31:07.605Z,97336.81
2023-02-27T08:34:13.223Z,97396.06
2023-02-27T08:37:17.713Z,97383.84
2023-02-27T08:40:22.281Z,97401.63
2023-02-27T08:43:26.819Z,97408.63
2023-02-27T08:46:32.245Z,97398.56
2023-02-27T08:49:36.915Z,97406.38
2023-02-27T08:52:41.405Z,97414.09
2023-02-27T08:55:50.993Z,97423.16
2023-02-27T08:58:55.587Z,97409.63
2023-02-27T09:02:00.181Z,97415.44
2023-02-27T09:05:05.038Z,97424.94
2023-02-27T09:08:09.695Z,97422.88
2023-02-27T09:11:15.351Z,97422.59
2023-02-27T09:14:20.047Z,97437.78
2023-02-27T09:17:24.578Z,97438.50
2023-02-27T09:20:31.561Z,97446.78
2023-02-27T09:23:37.260Z,97438.50
2023-02-27T09:26:46.056Z,97436.72
2023-02-27T09:29:55.821Z,97444.41
2023-02-27T09:33:00.480Z,97443.44
2023-02-27T09:36:06.839Z,97453.00
2023-02-27T09:39:11.367Z,97443.66
2023-02-27T09:42:22.386Z,97451.50
2023-02-27T09:45:30.020Z,97452.31
2023-02-27T09:48:54.522Z,97454.16
2023-02-27T09:51:59.187Z,97455.41
2023-02-27T09:55:15.204Z,97443.97
2023-02-27T09:58:57.904Z,97461.47
2023-02-27T10:02:22.938Z,97476.31
2023-02-27T10:05:40.369Z,97467.59
2023-02-27T10:08:56.575Z,97473.00
2023-02-27T10:12:23.982Z,97472.03
2023-02-27T10:15:38.132Z,97473.84
2023-02-27T10:19:06.728Z,97475.25
2023-02-27T10:22:12.302Z,97469.84
2023-02-27T10:25:30.835Z,97474.28
2023-02-27T10:28:35.927Z,97483.28
2023-02-27T10:31:41.854Z,97473.94
2023-02-27T10:35:10.890Z,97465.06
2023-02-27T10:38:29.176Z,97467.91
2023-02-27T10:41:36.163Z,97466.28
2023-02-27T10:44:40.787Z,97464.84
2023-02-27T10:47:46.250Z,97476.66
2023-02-27T10:50:52.051Z,97461.16
2023-02-27T10:54:23.581Z,97469.00
2023-02-27T10:57:40.545Z,97474.72
2023-02-27T11:01:06.970Z,97464.97
2023-02-27T11:04:12.918Z,97471.09
2023-02-27T11:07:21.167Z,97438.69
2023-02-27T11:10:28.281Z,97461.34
2023-02-27T11:13:41.822Z,97460.88
2023-02-27T11:17:13.308Z,97457.16
2023-02-27T11:20:29.952Z,97458.81
2023-02-27T11:23:34.515Z,97440.59
2023-02-27T11:26:41.299Z,97450.63
2023-02-27T11:30:23.815Z,97464.38
2023-02-27T11:33:31.347Z,97454.72
2023-02-27T11:36:41.854Z,97457.78
2023-02-27T11:39:52.911Z,97449.63
2023-02-27T11:43:03.705Z,97425.72
2023-02-27T11:46:32.133Z,97445.34
2023-02-27T11:50:01.076Z,97426.03
2023-02-27T11:53:40.731Z,97432.00
2023-02-27T11:56:52.135Z,97427.50
2023-02-27T12:00:36.678Z,97411.91
2023-02-27T12:03:50.615Z,97415.09
2023-02-27T12:07:27.416Z,97408.63
2023-02-27T12:10:39.179Z,97407.81
2023-02-27T12:13:49.401Z,97406.53
2023-02-27T12:16:59.044Z,97408.38
2023-02-27T12:20:07.650Z,97404.41
2023-02-27T12:23:25.886Z,97399.44
2023-02-27T12:26:38.377Z,97397.09
2023-02-27T12:29:51.090Z,97401.03
2023-02-27T12:33:32.317Z,97397.41
2023-02-27T12:36:36.789Z,97395.53
2023-02-27T12:39:44.533Z,97405.13
2023-02-27T12:43:04.120Z,97392.25
2023-02-27T12:46:11.697Z,97412.06
2023-02-27T12:49:42.909Z,97411.56
2023-02-27T12:53:36.115Z,97416.00
2023-02-27T12:57:05.981Z,97408.03
2023-02-27T13:00:25.064Z,97406.22
2023-02-27T13:03:45.225Z,97400.91
2023-02-27T13:06:51.286Z,97403.69
2023-02-27T13:10:03.356Z,97396.28
2023-02-27T13:13:09.783Z,97400.25
2023-02-27T13:16:41.217Z,97408.25
2023-02-27T13:19:52.868Z,97408.84
2023-02-27T13:23:23.395Z,97400.50
2023-02-27T13:26:38.415Z,97404.03
2023-02-27T13:30:01.301Z,97398.16
2023-02-27T13:33:30.392Z,97405.75
2023-02-27T13:36:43.535Z,97403.09
2023-02-27T13:39:52.536Z,97404.63
2023-02-27T13:43:01.802Z,97397.88
2023-02-27T13:46:26.318Z,97399.75
2023-02-27T13:49:42.727Z,97411.28
2023-02-27T13:52:48.316Z,97404.81
2023-02-27T13:55:57.888Z,97405.69
2023-02-27T13:59:28.834Z,97411.94
2023-02-27T14:02:46.587Z,97410.56
2023-02-27T14:06:02.037Z,97416.41
2023-02-27T14:09:15.046Z,97410.53
2023-02-27T14:12:45.409Z,97409.13
2023-02-27T14:15:55.652Z,97410.41
2023-02-27T14:19:01.534Z,97415.94
2023-02-27T14:22:11.782Z,97419.09
2023-02-27T14:25:51.400Z,97421.31
2023-02-27T14:28:57.061Z,97421.81
2023-02-27T14:32:07.956Z,97417.28
2023-02-27T14:35:16.203Z,97423.94
2023-02-27T14:38:21.229Z,97424.03
2023-02-27T14:41:48.183Z,97418.81
2023-02-27T14:44:53.778Z,97423.09
2023-02-27T14:47:58.710Z,97424.53
2023-02-27T14:51:03.269Z,97423.66
2023-02-27T14:54:21.174Z,97422.97
2023-02-27T14:57:28.941Z,97430.19
2023-02-27T15:00:43.496Z,97433.34
2023-02-27T15:03:52.704Z,97428.41
2023-02-27T15:06:58.780Z,97434.47
2023-02-27T15:10:08.250Z,97434.56
2023-02-27T15:13:27.238Z,97442.22
2023-02-27T15:16:34.620Z,97436.53
2023-02-27T15:19:47.218Z,97423.34
2023-02-27T15:22:51.876Z,97454.28
2023-02-27T15:25:59.083Z,97445.16
2023-02-27T15:29:05.520Z,97440.13
2023-02-27T15:32:38.432Z,97448.44
2023-02-27T15:35:45.513Z,97432.94
2023-02-27T15:39:16.370Z,97444.97
2023-02-27T15:42:25.328Z,97445.75
2023-02-27T15:45:34.791Z,97457.69
2023-02-27T15:48:39.586Z,97454.94
2023-02-27T15:51:46.399Z,97457.59
2023-02-27T15:55:03.625Z,97462.09
2023-02-27T15:58:37.507Z,97463.19
2023-02-27T16:01:42.245Z,97465.88
2023-02-27T16:04:47.441Z,97474.97
2023-02-27T16:07:53.249Z,97476.72
2023-02-27T16:10:58.087Z,97480.84
2023-02-27T16:14:04.112Z,97468.69
2023-02-27T16:17:31.957Z,97487.56
2023-02-27T16:20:55.668Z,97488.41
2023-02-27T16:24:21.322Z,97491.31
2023-02-27T16:27:27.245Z,97493.66
2023-02-27T16:30:31.801Z,97501.97
2023-02-27T16:33:38.050Z,97498.47
2023-02-27T16:36:52.269Z,97501.53
2023-02-27T16:39:56.881Z,97514.78
2023-02-27T16:43:02.396Z,97472.72
2023-02-27T16:46:08.192Z,97520.81
2023-02-27T16:49:22.333Z,97514.88
2023-02-27T16:52:26.972Z,97525.63
2023-02-27T16:55:33.647Z,97533.84
2023-02-27T16:58:38.865Z,97528.00
2023-02-27T17:01:46.604Z,97501.06
2023-02-27T17:04:52.153Z,97532.44
2023-02-27T17:07:56.771Z,97536.28
2023-02-27T17:11:02.038Z,97533.91
2023-02-27T17:14:06.552Z,97512.94
2023-02-27T17:17:11.470Z,97535.69
2023-02-27T17:20:17.858Z,97512.09
2023-02-27T17:23:23.161Z,97530.69
2023-02-27T17:26:28.745Z,97540.91
2023-02-27T17:29:33.495Z,97519.25
2023-02-27T17:32:38.067Z,97544.34
2023-02-27T17:35:42.578Z,97532.56
2023-02-27T17:38:48.742Z,97547.00
2023-02-27T17:41:54.302Z,97544.59
2023-02-27T17:44:58.812Z,97545.28
2023-02-27T17:48:03.360Z,97550.28
2023-02-27T17:51:11.614Z,97553.44
2023-02-27T17:54:16.241Z,97570.91
2023-02-27T17:57:20.902Z,97558.16
2023-02-27T18:00:25.469Z,97560.28
2023-02-27T18:03:30.065Z,97532.28
2023-02-27T18:06:34.633Z,97583.19
2023-02-27T18:09:39.443Z,97577.94
2023-02-27T18:12:44.014Z,97580.38
2023-02-27T18:15:50.043Z,97580.44
2023-02-27T18:18:54.659Z,97556.84
2023-02-27T18:21:59.168Z,97571.56
2023-02-27T18:25:03.896Z,97585.94
2023-02-27T18:28:08.786Z,97583.38
2023-02-27T18:31:31.571Z,97576.19
2023-02-27T18:34:36.233Z,97579.56
2023-02-27T18:37:40.750Z,97575.13
2023-02-27T18:40:46.480Z,97507.56
2023-02-27T18:43:51.103Z,97570.22
2023-02-27T18:46:55.617Z,97572.03
2023-02-27T18:50:00.294Z,97573.94
2023-02-27T18:53:04.864Z,97568.69
2023-02-27T18:56:13.881Z,97580.69
2023-02-27T18:59:18.418Z,97582.09
2023-02-27T19:02:22.916Z,97570.56
2023-02-27T19:05:27.531Z,97586.16
2023-02-27T19:08:32.100Z,97587.28
2023-02-27T19:11:36.976Z,97592.63
2023-02-27T19:14:41.516Z,97594.34
2023-02-27T19:17:46.730Z,97599.19
2023-02-27T19:20:51.269Z,97594.97
2023-02-27T19:23:55.943Z,97592.25
2023-02-27T19:27:00.862Z,97564.81
2023-02-27T19:30:09.219Z,97597.38
2023-02-27T19:33:13.735Z,97597.59
2023-02-27T19:36:20.896Z,97598.09
2023-02-27T19:39:25.499Z,97601.25
2023-02-27T19:42:30.005Z,97610.47
2023-02-27T19:45:34.508Z,97611.63
2023-02-27T19:48:39.507Z,97612.38
2023-02-27T19:51:44.058Z,97602.91
2023-02-27T19:54:48.627Z,97609.72
2023-02-27T19:57:53.102Z,97610.91
2023-02-27T20:00:57.820Z,97603.66
2023-02-27T20:04:03.375Z,97606.31
2023-02-27T20:07:08.090Z,97605.97
2023-02-27T20:10:12.774Z,97607.78
2023-02-27T20:13:17.394Z,97614.41
2023-02-27T20:16:28.034Z,97606.16
2023-02-27T20:19:33.002Z,97602.84
2023-02-27T20:22:38.115Z,97607.72
2023-02-27T20:25:42.668Z,97609.38
2023-02-27T20:28:48.827Z,97605.50
2023-02-27T20:31:57.257Z,97609.22
2023-02-27T20:35:01.796Z,97606.31
2023-02-27T20:38:06.763Z,97605.34
2023-02-27T20:41:18.291Z,97607.63
2023-02-27T20:44:22.801Z,97601.22
2023-02-27T20:47:28.058Z,97598.44
2023-02-27T20:50:33.882Z,97591.91
2023-02-27T20:53:40.596Z,97599.72
2023-02-27T20:56:45.346Z,97594.03
2023-02-27T20:59:51.398Z,97532.56
2023-02-27T21:02:55.977Z,97589.69
2023-02-27T21:06:00.531Z,97584.50
2023-02-27T21:09:06.299Z,97560.47
2023-02-27T21:12:11.679Z,97573.38
2023-02-27T21:15:16.203Z,97582.97
2023-02-27T21:18:20.758Z,97572.47
2023-02-27T21:21:28.795Z,97570.88
2023-02-27T21:24:33.806Z,97569.69
2023-02-27T21:27:38.438Z,97578.19
2023-02-27T21:30:44.434Z,97533.19
2023-02-27T21:33:50.228Z,97565.69
2023-02-27T21:36:55.697Z,97559.31
2023-02-27T21:40:01.748Z,97569.75
2023-02-27T21:43:06.236Z,97561.13
2023-02-27T21:46:12.653Z,97568.63
2023-02-27T21:49:24.605Z,97568.50
2023-02-27T21:52:31.577Z,97568.69
2023-02-27T21:55:36.056Z,97560.56
2023-02-27T21:58:40.587Z,97556.28
2023-02-27T22:01:47.396Z,97546.84
2023-02-27T22:04:52.061Z,97558.50
2023-02-27T22:07:56.596Z,97565.88
2023-02-27T22:11:01.474Z,97572.38
2023-02-27T22:14:06.890Z,97542.03
2023-02-27T22:17:11.348Z,97561.91
2023-02-27T22:20:15.911Z,97564.97
2023-02-27T22:23:20.540Z,97567.16
2023-02-27T22:26:28.153Z,97555.91
2023-02-27T22:29:32.765Z,97559.44
2023-02-27T22:32:40.580Z,97552.78
2023-02-27T22:35:45.305Z,97536.38
2023-02-27T22:38:50.482Z,97543.03
2023-02-27T22:41:56.842Z,97550.88
2023-02-27T22:45:01.537Z,97554.78
2023-02-27T22:48:06.436Z,97548.56
2023-02-27T22:51:14.835Z,97540.56
2023-02-27T22:54:21.942Z,97547.75
2023-02-27T22:57:26.430Z,97554.22
2023-02-27T23:00:31.028Z,97540.84
2023-02-27T23:03:36.582Z,97545.19
2023-02-27T23:06:41.951Z,97545.72
2023-02-27T23:09:49.458Z,97520.94
2023-02-27T23:12:53.911Z,97547.75
2023-02-27T23:15:59.621Z,97547.91
2023-02-27T23:19:04.798Z,97550.00
2023-02-27T23:22:09.298Z,97551.66
2023-02-27T23:25:13.915Z,97548.28
2023-02-27T23:28:21.376Z,97515.69
2023-02-27T23:31:26.108Z,97541.59
2023-02-27T23:34:43.765Z,97538.59
2023-02-27T23:37:55.630Z,97533.94
2023-02-27T23:41:06.600Z,97540.66
2023-02-27T23:44:29.393Z,97530.47
2023-02-27T23:47:41.441Z,97512.84
2023-02-27T23:50:45.950Z,97528.91
2023-02-27T23:53:50.955Z,97511.84
2023-02-27T23:56:55.556Z,97532.25
